Central Wisconsin Airport Mosinee US
ICAO: KCWA
IATA: CWA
Category: Medium
Scheduled Services: No

Elevation: 1277 ft
TransAlt. 18000 ft.

Airport Communications:
ATIS:127.45
AWOS 3:127.45
MINNEAPOLIS CNTR:124.4
CTAF:119.75
GND:121.9
GREEN BAY RDO:122.525
TWR:119.75
UNICOM:122.95

KCWA Zoom In..

If you have problems with the map follow the link
https://www.worldairports.se/pages/airport.php?
ICAO=KCWA

Runways:

(A) RW 08 length 7648 ft width 150 ft
ILS 110.30 / hdg 77

(B) RW 17 length 6501 ft width 150 ft
---- / hdg 170

(C) RW 26 length 7648 ft width 150 ft
---- / hdg 257

(D) RW 35 length 6501 ft width 150 ft
ILS 110.90 / hdg 350

Location; KCWA
Day. 19 / Time. 12.53 Zulu
* Altimeter: 29.98
* Temperature: -07° c. -19.4°f.
* Wind from: 000° Speed 00 kn.
Dewpoint: -09° c.
Visibility: 3 Statute Miles.
Clouds: Broken 2700 ft.
Clouds: Overcast 4000 ft.
Conditions: Light Snow.

KCWA 191253Z 00000KT 3SM -SN BKN027 OVC040 M07/M09 A2998


Wind - Calm.

 
 
jpsmedia.com for Web Design worldairports.se 2018   terms of use